createdAt,value
2018-07-31T00:01:24.540Z,3.10
2018-07-31T00:03:53.641Z,3.57
2018-07-31T00:06:24.326Z,3.37
2018-07-31T00:08:55.085Z,3.90
2018-07-31T00:11:24.113Z,3.40
2018-07-31T00:13:53.211Z,3.47
2018-07-31T00:16:22.119Z,3.50
2018-07-31T00:18:50.975Z,3.03
2018-07-31T00:21:19.859Z,3.40
2018-07-31T00:23:48.664Z,3.30
2018-07-31T00:26:17.579Z,3.10
2018-07-31T00:28:46.456Z,3.10
2018-07-31T00:31:15.584Z,3.43
2018-07-31T00:33:44.660Z,3.00
2018-07-31T00:36:13.907Z,3.50
2018-07-31T00:38:43.022Z,3.20
2018-07-31T00:41:11.982Z,3.77
2018-07-31T00:43:40.921Z,3.27
2018-07-31T00:46:10.390Z,3.30
2018-07-31T00:48:39.628Z,3.40
2018-07-31T00:51:08.707Z,3.43
2018-07-31T00:53:37.624Z,3.20
2018-07-31T00:56:06.678Z,3.63
2018-07-31T00:58:35.653Z,3.10
2018-07-31T01:01:04.679Z,3.53
2018-07-31T01:03:33.658Z,3.57
2018-07-31T01:06:02.554Z,3.90
2018-07-31T01:08:31.456Z,3.60
2018-07-31T01:11:00.381Z,4.40
2018-07-31T01:13:29.227Z,4.80
2018-07-31T01:15:58.132Z,4.30
2018-07-31T01:18:27.132Z,4.40
2018-07-31T01:20:56.193Z,4.40
2018-07-31T01:23:25.304Z,4.70
2018-07-31T01:25:54.358Z,3.33
2018-07-31T01:28:23.422Z,3.60
2018-07-31T01:30:52.501Z,3.63
2018-07-31T01:33:21.545Z,3.77
2018-07-31T01:35:50.581Z,3.67
2018-07-31T01:38:19.614Z,3.50
2018-07-31T01:40:49.512Z,3.60
2018-07-31T01:43:19.452Z,3.60
2018-07-31T01:45:48.426Z,4.00
2018-07-31T01:48:17.488Z,3.97
2018-07-31T01:50:46.530Z,4.00
2018-07-31T01:53:15.435Z,3.70
2018-07-31T01:55:44.484Z,3.80
2018-07-31T01:58:13.432Z,3.87
2018-07-31T02:00:43.294Z,3.87
2018-07-31T02:03:12.269Z,3.10
2018-07-31T02:05:41.521Z,4.17
2018-07-31T02:08:10.732Z,3.43
2018-07-31T02:10:40.106Z,3.23
2018-07-31T02:13:09.728Z,3.63
2018-07-31T02:15:39.105Z,3.93
2018-07-31T02:18:08.222Z,3.90
2018-07-31T02:20:37.262Z,3.27
2018-07-31T02:23:06.470Z,3.47
2018-07-31T02:25:36.367Z,3.00
2018-07-31T02:28:05.689Z,4.13
2018-07-31T02:30:34.736Z,3.87
2018-07-31T02:33:03.746Z,4.07
2018-07-31T02:35:32.759Z,4.20
2018-07-31T02:38:01.652Z,4.13
2018-07-31T02:40:30.809Z,3.17
2018-07-31T02:42:59.759Z,3.63
2018-07-31T02:45:28.707Z,3.40
2018-07-31T02:47:57.464Z,3.87
2018-07-31T02:50:26.380Z,3.90
2018-07-31T02:52:55.267Z,4.33
2018-07-31T02:55:24.179Z,3.67
2018-07-31T02:57:53.605Z,4.20
2018-07-31T03:00:22.491Z,4.40
2018-07-31T03:02:51.305Z,4.10
2018-07-31T03:05:20.225Z,3.57
2018-07-31T03:07:49.034Z,3.73
2018-07-31T03:10:17.921Z,4.10
2018-07-31T03:12:46.792Z,4.30
2018-07-31T03:15:15.586Z,4.17
2018-07-31T03:17:44.473Z,4.30
2018-07-31T03:20:13.300Z,3.67
2018-07-31T03:22:42.137Z,4.43
2018-07-31T03:25:11.202Z,4.17
2018-07-31T03:27:40.030Z,4.33
2018-07-31T03:30:08.817Z,4.43
2018-07-31T03:32:37.723Z,4.33
2018-07-31T03:35:06.819Z,4.33
2018-07-31T03:37:35.709Z,4.13
2018-07-31T03:40:04.443Z,4.57
2018-07-31T03:42:33.364Z,4.33
2018-07-31T03:45:02.072Z,4.63
2018-07-31T03:47:30.968Z,3.57
2018-07-31T03:49:59.695Z,4.37
2018-07-31T03:52:28.502Z,4.50
2018-07-31T03:54:57.365Z,4.00
2018-07-31T03:57:26.248Z,4.17
2018-07-31T03:59:55.012Z,3.63
2018-07-31T04:02:24.794Z,4.27
2018-07-31T04:04:54.483Z,4.37
2018-07-31T04:07:23.307Z,4.03
2018-07-31T04:09:52.113Z,4.47
2018-07-31T04:12:20.951Z,4.33
2018-07-31T04:14:49.919Z,4.40
2018-07-31T04:17:18.916Z,3.97
2018-07-31T04:19:47.795Z,4.37
2018-07-31T04:22:16.632Z,5.50
2018-07-31T04:24:45.591Z,4.37
2018-07-31T04:27:20.321Z,4.30
2018-07-31T04:29:49.416Z,4.03
2018-07-31T04:32:18.667Z,4.77
2018-07-31T04:34:47.831Z,4.80
2018-07-31T04:37:16.896Z,5.30
2018-07-31T04:39:46.846Z,4.97
2018-07-31T04:42:16.995Z,4.90
2018-07-31T04:44:46.040Z,4.37
2018-07-31T04:47:15.083Z,4.27
2018-07-31T04:49:44.024Z,4.30
2018-07-31T04:52:13.031Z,4.47
2018-07-31T04:54:42.112Z,4.60
2018-07-31T04:57:11.115Z,4.50
2018-07-31T04:59:40.987Z,4.77
2018-07-31T05:02:10.488Z,4.97
2018-07-31T05:04:39.755Z,4.87
2018-07-31T05:07:08.889Z,5.10
2018-07-31T05:09:37.751Z,5.10
2018-07-31T05:12:07.232Z,5.30
2018-07-31T05:14:36.069Z,4.60
2018-07-31T05:17:05.802Z,5.53
2018-07-31T05:19:34.816Z,5.30
2018-07-31T05:22:03.992Z,5.43
2018-07-31T05:24:33.679Z,4.80
2018-07-31T05:27:02.585Z,5.07
2018-07-31T05:29:31.900Z,6.27
2018-07-31T05:32:01.233Z,5.57
2018-07-31T05:34:31.010Z,5.40
2018-07-31T05:37:00.072Z,8.07
2018-07-31T05:39:29.131Z,6.43
2018-07-31T05:42:00.108Z,5.63
2018-07-31T05:47:21.457Z,6.33
2018-07-31T05:49:50.528Z,5.97
2018-07-31T05:52:19.544Z,5.50
2018-07-31T05:54:51.128Z,6.13
2018-07-31T05:57:20.168Z,6.83
2018-07-31T05:59:49.433Z,6.17
2018-07-31T06:02:18.587Z,10.33
2018-07-31T06:04:47.578Z,6.57
2018-07-31T06:07:16.310Z,6.97
2018-07-31T06:09:45.008Z,6.37
2018-07-31T06:12:13.720Z,11.00
2018-07-31T06:14:42.911Z,7.83
2018-07-31T06:17:12.999Z,7.73
2018-07-31T06:19:42.064Z,8.10
2018-07-31T06:22:10.870Z,6.63
2018-07-31T06:24:39.720Z,6.93
2018-07-31T06:27:08.917Z,6.47
2018-07-31T06:29:37.892Z,6.17
2018-07-31T06:32:06.776Z,6.63
2018-07-31T06:34:35.705Z,6.30
2018-07-31T06:37:04.625Z,5.53
2018-07-31T06:39:33.563Z,8.40
2018-07-31T06:42:02.304Z,6.87
2018-07-31T06:44:31.243Z,5.53
2018-07-31T06:47:00.086Z,6.12
2018-07-31T06:49:28.899Z,5.85
2018-07-31T06:51:57.682Z,6.10
2018-07-31T06:54:26.559Z,5.37
2018-07-31T06:56:55.453Z,6.07
2018-07-31T06:59:24.465Z,5.20
2018-07-31T07:01:53.353Z,5.70
2018-07-31T07:04:22.366Z,5.40
2018-07-31T07:06:51.297Z,5.30
2018-07-31T07:09:20.218Z,4.80
2018-07-31T07:11:48.852Z,4.53
2018-07-31T07:14:17.502Z,4.40
2018-07-31T07:16:46.086Z,3.77
2018-07-31T07:19:14.735Z,4.47
2018-07-31T07:21:43.402Z,4.20
2018-07-31T07:24:12.043Z,3.97
2018-07-31T07:26:40.682Z,4.20
2018-07-31T07:29:09.728Z,3.77
2018-07-31T07:31:38.483Z,3.70
2018-07-31T07:34:07.638Z,3.90
2018-07-31T07:36:36.369Z,4.20
2018-07-31T07:39:09.223Z,3.87
2018-07-31T07:41:37.831Z,3.98
2018-07-31T07:44:06.946Z,4.35
2018-07-31T07:46:35.655Z,4.08
2018-07-31T07:49:04.380Z,4.70
2018-07-31T07:51:33.087Z,4.33
2018-07-31T07:54:01.934Z,4.10
2018-07-31T07:56:30.761Z,4.22
2018-07-31T07:58:59.641Z,4.62
2018-07-31T08:01:28.452Z,4.45
2018-07-31T08:03:57.370Z,4.00
2018-07-31T08:06:26.182Z,4.12
2018-07-31T08:08:55.135Z,3.87
2018-07-31T08:11:24.024Z,3.65
2018-07-31T08:13:53.058Z,3.65
2018-07-31T08:16:21.867Z,4.25
2018-07-31T08:18:50.465Z,4.05
2018-07-31T08:21:19.107Z,4.50
2018-07-31T08:23:47.767Z,4.50
2018-07-31T08:26:18.508Z,3.92
2018-07-31T08:28:47.178Z,3.75
2018-07-31T08:31:15.788Z,4.17
2018-07-31T08:33:44.404Z,3.80
2018-07-31T08:36:12.996Z,3.87
2018-07-31T08:38:41.683Z,5.45
2018-07-31T08:41:10.386Z,4.20
2018-07-31T08:43:39.795Z,4.08
2018-07-31T08:46:08.465Z,3.45
2018-07-31T08:48:37.089Z,2.92
2018-07-31T08:51:05.733Z,3.20
2018-07-31T08:53:34.428Z,3.33
2018-07-31T08:56:03.189Z,3.40
2018-07-31T08:58:31.996Z,3.87
2018-07-31T09:01:00.559Z,3.33
2018-07-31T09:03:29.125Z,3.22
2018-07-31T09:05:57.802Z,2.90
2018-07-31T09:08:26.761Z,3.15
2018-07-31T09:10:55.361Z,3.40
2018-07-31T09:13:23.923Z,4.00
2018-07-31T09:15:52.510Z,2.85
2018-07-31T09:18:21.086Z,3.20
2018-07-31T09:20:49.606Z,3.30
2018-07-31T09:23:18.153Z,3.67
2018-07-31T09:25:47.667Z,3.95
2018-07-31T09:28:17.723Z,3.47
2018-07-31T09:30:51.652Z,3.22
2018-07-31T09:33:20.142Z,3.27
2018-07-31T09:35:48.707Z,3.42
2018-07-31T09:38:17.257Z,3.17
2018-07-31T09:40:45.836Z,2.87
2018-07-31T09:43:14.403Z,2.85
2018-07-31T09:45:42.976Z,2.62
2018-07-31T09:48:11.541Z,3.62
2018-07-31T09:50:40.127Z,4.20
2018-07-31T09:53:08.639Z,3.00
2018-07-31T09:55:37.236Z,2.77
2018-07-31T09:58:05.896Z,3.02
2018-07-31T10:00:39.640Z,2.62
2018-07-31T10:03:08.318Z,2.98
2018-07-31T10:05:37.658Z,3.90
2018-07-31T10:08:06.409Z,3.17
2018-07-31T10:10:35.786Z,3.50
2018-07-31T10:13:05.486Z,4.10
2018-07-31T10:15:34.339Z,3.50
2018-07-31T10:18:03.196Z,3.87
2018-07-31T10:20:33.603Z,3.77
2018-07-31T10:23:02.228Z,3.85
2018-07-31T10:25:31.332Z,3.80
2018-07-31T10:27:59.985Z,3.70
2018-07-31T10:30:30.759Z,3.70
2018-07-31T10:33:00.274Z,3.50
2018-07-31T10:35:30.089Z,3.70
2018-07-31T10:37:59.651Z,3.70
2018-07-31T10:40:30.162Z,3.37
2018-07-31T10:42:59.843Z,3.42
2018-07-31T10:45:28.824Z,3.10
2018-07-31T10:47:57.758Z,3.92
2018-07-31T10:50:26.274Z,3.17
2018-07-31T10:52:54.805Z,2.47
2018-07-31T10:55:23.297Z,2.65
2018-07-31T10:57:51.879Z,3.12
2018-07-31T11:00:20.691Z,2.90
2018-07-31T11:02:49.278Z,3.37
2018-07-31T11:05:18.790Z,2.62
2018-07-31T11:07:47.340Z,2.92
2018-07-31T11:10:17.872Z,3.10
2018-07-31T11:12:46.476Z,3.10
2018-07-31T11:15:15.103Z,2.77
2018-07-31T11:17:43.643Z,2.52
2018-07-31T11:20:12.213Z,2.87
2018-07-31T11:22:40.879Z,2.80
2018-07-31T11:25:09.532Z,2.47
2018-07-31T11:27:38.177Z,2.55
2018-07-31T11:30:07.006Z,2.67
2018-07-31T11:32:35.636Z,1.98
2018-07-31T11:35:04.543Z,2.75
2018-07-31T11:37:33.147Z,2.27
2018-07-31T11:40:01.773Z,2.27
2018-07-31T11:42:30.399Z,2.35
2018-07-31T11:44:58.994Z,2.58
2018-07-31T11:47:27.764Z,2.45
2018-07-31T11:49:56.397Z,2.50
2018-07-31T11:52:25.214Z,2.35
2018-07-31T11:54:53.824Z,2.00
2018-07-31T11:57:22.563Z,2.77
2018-07-31T11:59:51.280Z,2.17
2018-07-31T12:02:19.979Z,4.15
2018-07-31T12:04:48.599Z,5.03
2018-07-31T12:07:17.335Z,2.40
2018-07-31T12:09:46.257Z,2.25
2018-07-31T12:12:15.167Z,2.00
2018-07-31T12:14:43.735Z,2.20
2018-07-31T12:17:12.723Z,2.22
2018-07-31T12:19:41.445Z,2.20
2018-07-31T12:22:10.252Z,2.15
2018-07-31T12:24:44.663Z,2.42
2018-07-31T12:27:13.460Z,2.52
2018-07-31T12:29:42.303Z,2.65
2018-07-31T12:32:11.170Z,2.62
2018-07-31T12:34:39.785Z,2.37
2018-07-31T12:37:08.370Z,2.22
2018-07-31T12:39:36.947Z,2.40
2018-07-31T12:42:05.502Z,2.70
2018-07-31T12:44:34.049Z,2.35
2018-07-31T12:47:03.144Z,2.10
2018-07-31T12:49:31.719Z,2.33
2018-07-31T12:52:01.201Z,2.40
2018-07-31T12:54:30.519Z,2.50
2018-07-31T12:56:59.680Z,1.72
2018-07-31T12:59:28.956Z,2.60
2018-07-31T13:01:57.745Z,1.85
2018-07-31T13:04:26.473Z,2.30
2018-07-31T13:06:55.181Z,2.55
2018-07-31T13:09:23.910Z,2.33
2018-07-31T13:11:52.612Z,2.50
2018-07-31T13:14:21.200Z,2.67
2018-07-31T13:16:49.840Z,2.70
2018-07-31T13:19:18.585Z,3.25
2018-07-31T13:21:47.307Z,2.60
2018-07-31T13:24:17.090Z,2.40
2018-07-31T13:26:45.699Z,2.08
2018-07-31T13:29:14.335Z,2.33
2018-07-31T13:31:42.869Z,2.42
2018-07-31T13:34:11.774Z,2.02
2018-07-31T13:36:40.530Z,1.98
2018-07-31T13:39:10.206Z,1.72
2018-07-31T13:41:39.002Z,2.60
2018-07-31T13:44:07.989Z,2.55
2018-07-31T13:46:36.481Z,2.47
2018-07-31T13:49:05.225Z,2.30
2018-07-31T13:51:33.917Z,2.40
2018-07-31T13:54:02.802Z,2.52
2018-07-31T13:56:31.391Z,2.10
2018-07-31T13:59:00.100Z,2.40
2018-07-31T14:01:28.915Z,2.20
2018-07-31T14:03:57.628Z,2.10
2018-07-31T14:06:26.813Z,2.20
2018-07-31T14:08:55.533Z,2.10
2018-07-31T14:11:24.243Z,2.70
2018-07-31T14:13:52.950Z,2.50
2018-07-31T14:16:21.936Z,2.22
2018-07-31T14:18:50.616Z,3.17
2018-07-31T14:21:19.278Z,2.70
2018-07-31T14:23:47.930Z,2.22
2018-07-31T14:26:16.752Z,2.02
2018-07-31T14:28:45.427Z,2.62
2018-07-31T14:31:14.133Z,2.00
2018-07-31T14:33:43.039Z,1.95
2018-07-31T14:36:11.794Z,2.50
2018-07-31T14:38:40.541Z,1.98
2018-07-31T14:41:09.301Z,2.20
2018-07-31T14:43:37.995Z,2.35
2018-07-31T14:46:06.976Z,2.80
2018-07-31T14:48:35.844Z,2.10
2018-07-31T14:51:04.880Z,1.70
2018-07-31T14:53:33.968Z,2.65
2018-07-31T14:56:03.926Z,1.85
2018-07-31T14:58:32.824Z,1.70
2018-07-31T15:01:01.933Z,1.75
2018-07-31T15:03:31.247Z,1.85
2018-07-31T15:06:00.376Z,1.82
2018-07-31T15:08:30.424Z,1.70
2018-07-31T15:10:59.228Z,1.92
2018-07-31T15:13:28.044Z,2.50
2018-07-31T15:15:57.253Z,2.20
2018-07-31T15:18:26.108Z,3.25
2018-07-31T15:20:55.150Z,1.95
2018-07-31T15:23:24.130Z,1.98
2018-07-31T15:25:53.462Z,1.80
2018-07-31T15:28:22.922Z,1.90
2018-07-31T15:30:51.946Z,1.57
2018-07-31T15:33:21.032Z,1.60
2018-07-31T15:35:51.265Z,1.90
2018-07-31T15:38:20.236Z,1.42
2018-07-31T15:40:50.287Z,1.45
2018-07-31T15:43:19.297Z,1.90
2018-07-31T15:45:48.879Z,1.85
2018-07-31T15:48:17.971Z,1.30
2018-07-31T15:50:47.321Z,1.55
2018-07-31T15:53:16.336Z,1.70
2018-07-31T15:55:46.022Z,1.40
2018-07-31T15:58:15.195Z,1.40
2018-07-31T16:03:22.190Z,2.15
2018-07-31T16:06:03.816Z,2.10
2018-07-31T16:08:45.740Z,1.80
2018-07-31T16:14:18.021Z,1.25
2018-07-31T16:16:47.942Z,1.37
2018-07-31T16:19:25.062Z,1.67
2018-07-31T16:21:54.065Z,1.65
2018-07-31T16:24:29.350Z,1.57
2018-07-31T16:27:05.275Z,1.50
2018-07-31T16:29:40.883Z,1.32
2018-07-31T16:32:11.077Z,1.35
2018-07-31T16:34:46.320Z,1.37
2018-07-31T16:37:15.367Z,1.20
2018-07-31T16:39:47.630Z,1.20
2018-07-31T16:42:16.920Z,1.32
2018-07-31T16:44:49.897Z,1.70
2018-07-31T16:47:30.726Z,1.92
2018-07-31T16:50:08.307Z,1.65
2018-07-31T16:55:13.054Z,1.60
2018-07-31T16:57:41.976Z,2.77
2018-07-31T17:00:19.552Z,1.25
2018-07-31T17:02:48.704Z,1.10
2018-07-31T17:05:25.870Z,1.30
2018-07-31T17:07:55.196Z,1.10
2018-07-31T17:12:58.804Z,1.40
2018-07-31T17:15:27.387Z,1.10
2018-07-31T17:17:56.041Z,2.00
2018-07-31T17:20:24.763Z,1.40
2018-07-31T17:22:53.856Z,1.30
2018-07-31T17:25:22.647Z,1.25
2018-07-31T17:27:51.411Z,1.50
2018-07-31T17:30:20.155Z,1.50
2018-07-31T17:32:48.998Z,2.00
2018-07-31T17:35:19.670Z,2.60
2018-07-31T17:37:48.457Z,2.30
2018-07-31T17:40:23.352Z,2.30
2018-07-31T17:42:52.032Z,1.70
2018-07-31T17:45:20.761Z,2.27
2018-07-31T17:47:49.651Z,2.30
2018-07-31T17:50:18.373Z,1.47
2018-07-31T17:52:47.133Z,1.73
2018-07-31T17:55:15.948Z,2.37
2018-07-31T17:57:44.596Z,2.70
2018-07-31T18:00:13.357Z,1.73
2018-07-31T18:02:42.166Z,2.40
2018-07-31T18:05:10.973Z,1.90
2018-07-31T18:07:39.619Z,1.80
2018-07-31T18:10:08.802Z,1.73
2018-07-31T18:12:38.521Z,1.63
2018-07-31T18:15:07.408Z,2.13
2018-07-31T18:17:36.060Z,2.10
2018-07-31T18:20:04.866Z,2.30
2018-07-31T18:22:33.871Z,1.90
2018-07-31T18:25:02.511Z,2.07
2018-07-31T18:27:31.255Z,1.93
2018-07-31T18:30:00.139Z,2.20
2018-07-31T18:32:28.991Z,2.07
2018-07-31T18:34:58.109Z,2.10
2018-07-31T18:37:26.954Z,2.37
2018-07-31T18:39:56.011Z,2.63
2018-07-31T18:42:24.974Z,2.57
2018-07-31T18:44:54.014Z,2.67
2018-07-31T18:47:22.946Z,2.37
2018-07-31T18:49:51.828Z,3.80
2018-07-31T18:52:20.695Z,3.00
2018-07-31T18:54:49.595Z,2.83
2018-07-31T18:57:18.950Z,2.57
2018-07-31T18:59:47.671Z,2.83
2018-07-31T19:02:16.990Z,2.80
2018-07-31T19:04:46.082Z,2.67
2018-07-31T19:07:15.246Z,3.00
2018-07-31T19:09:44.625Z,2.60
2018-07-31T19:12:22.354Z,2.77
2018-07-31T19:14:51.586Z,3.23
2018-07-31T19:17:20.679Z,2.90
2018-07-31T19:19:49.692Z,2.50
2018-07-31T19:22:18.897Z,2.77
2018-07-31T19:24:47.929Z,3.00
2018-07-31T19:27:16.724Z,2.70
2018-07-31T19:29:45.474Z,2.70
2018-07-31T19:32:14.301Z,2.50
2018-07-31T19:34:43.171Z,2.70
2018-07-31T19:37:12.034Z,2.53
2018-07-31T19:39:40.818Z,3.00
2018-07-31T19:42:09.742Z,2.70
2018-07-31T19:44:38.450Z,2.70
2018-07-31T19:47:07.288Z,3.13
2018-07-31T19:49:35.932Z,3.67
2018-07-31T19:52:06.608Z,3.73
2018-07-31T19:54:39.033Z,3.40
2018-07-31T19:57:07.822Z,2.70
2018-07-31T19:59:36.715Z,2.53
2018-07-31T20:02:05.727Z,3.20
2018-07-31T20:04:34.313Z,2.70
2018-07-31T20:07:03.213Z,3.40
2018-07-31T20:09:31.852Z,3.00
2018-07-31T20:12:00.593Z,2.40
2018-07-31T20:14:29.537Z,2.77
2018-07-31T20:16:58.205Z,3.00
2018-07-31T20:19:27.150Z,3.03
2018-07-31T20:21:56.164Z,2.90
2018-07-31T20:24:25.284Z,3.00
2018-07-31T20:27:01.009Z,2.80
2018-07-31T20:29:29.746Z,2.87
2018-07-31T20:31:58.509Z,2.80
2018-07-31T20:34:27.180Z,2.90
2018-07-31T20:36:56.034Z,2.63
2018-07-31T20:39:24.625Z,2.80
2018-07-31T20:41:53.593Z,2.53
2018-07-31T20:44:22.310Z,2.90
2018-07-31T20:46:50.915Z,2.97
2018-07-31T20:49:19.459Z,2.70
2018-07-31T20:51:48.082Z,2.93
2018-07-31T20:54:16.752Z,2.40
2018-07-31T20:56:45.351Z,2.50
2018-07-31T20:59:14.021Z,2.70
2018-07-31T21:01:42.720Z,2.90
2018-07-31T21:04:11.497Z,2.40
2018-07-31T21:06:40.329Z,2.67
2018-07-31T21:09:11.211Z,2.80
2018-07-31T21:11:39.842Z,2.67
2018-07-31T21:14:08.521Z,2.53
2018-07-31T21:16:37.171Z,2.17
2018-07-31T21:19:05.876Z,2.43
2018-07-31T21:21:34.624Z,2.80
2018-07-31T21:24:03.420Z,2.67
2018-07-31T21:26:32.004Z,2.50
2018-07-31T21:29:00.740Z,2.83
2018-07-31T21:31:29.425Z,2.40
2018-07-31T21:33:58.308Z,2.43
2018-07-31T21:36:27.499Z,2.93
2018-07-31T21:38:56.425Z,2.50
2018-07-31T21:41:25.172Z,2.70
2018-07-31T21:43:54.020Z,2.63
2018-07-31T21:46:23.196Z,2.67
2018-07-31T21:48:52.076Z,2.63
2018-07-31T21:51:20.925Z,2.80
2018-07-31T21:53:49.787Z,2.93
2018-07-31T21:56:18.497Z,2.50
2018-07-31T21:58:47.314Z,2.33
2018-07-31T22:01:16.197Z,2.47
2018-07-31T22:03:44.897Z,2.20
2018-07-31T22:06:13.761Z,2.63
2018-07-31T22:08:42.475Z,2.53
2018-07-31T22:11:11.232Z,2.73
2018-07-31T22:13:39.992Z,2.50
2018-07-31T22:16:08.717Z,2.10
2018-07-31T22:18:37.587Z,2.30
2018-07-31T22:21:06.286Z,2.20
2018-07-31T22:23:35.024Z,2.50
2018-07-31T22:26:03.803Z,2.70
2018-07-31T22:28:32.644Z,2.17
2018-07-31T22:31:01.472Z,2.50
2018-07-31T22:33:30.227Z,2.20
2018-07-31T22:35:59.017Z,2.40
2018-07-31T22:38:27.822Z,2.70
2018-07-31T22:40:56.473Z,2.20
2018-07-31T22:43:25.248Z,2.10
2018-07-31T22:45:54.021Z,2.47
2018-07-31T22:48:22.606Z,2.60
2018-07-31T22:50:51.466Z,2.00
2018-07-31T22:53:20.316Z,2.27
2018-07-31T22:55:49.149Z,2.50
2018-07-31T22:58:20.413Z,1.83
2018-07-31T23:00:49.408Z,2.63
2018-07-31T23:03:18.481Z,2.87
2018-07-31T23:05:47.491Z,2.40
2018-07-31T23:08:16.343Z,2.40
2018-07-31T23:10:45.224Z,2.03
2018-07-31T23:13:14.089Z,2.30
2018-07-31T23:15:43.221Z,2.40
2018-07-31T23:18:11.982Z,2.23
2018-07-31T23:20:40.842Z,2.23
2018-07-31T23:23:09.791Z,2.13
2018-07-31T23:25:39.014Z,2.00
2018-07-31T23:28:08.358Z,2.30
2018-07-31T23:30:38.301Z,2.30
2018-07-31T23:33:08.220Z,2.63
2018-07-31T23:35:37.170Z,2.50
2018-07-31T23:38:06.177Z,2.30
2018-07-31T23:40:35.977Z,2.73
2018-07-31T23:43:04.956Z,2.10
2018-07-31T23:45:34.008Z,2.87
2018-07-31T23:48:04.058Z,2.50
2018-07-31T23:50:34.251Z,1.93
2018-07-31T23:53:03.476Z,2.27
2018-07-31T23:55:32.493Z,2.20
